sensor_id;sensor_type;location;lat;lon;timestamp;pressure;altitude;pressure_sealevel;temperature;humidity
48778;BME280;34578;0.000;0.000;2022-09-09T00:00:25;96365.50;;;20.46;55.17
48778;BME280;34578;0.000;0.000;2022-09-09T00:05:38;96366.34;;;20.45;55.45
48778;BME280;34578;0.000;0.000;2022-09-09T00:10:43;96359.66;;;20.38;55.20
48778;BME280;34578;0.000;0.000;2022-09-09T00:21:08;96356.31;;;20.37;55.48
48778;BME280;34578;0.000;0.000;2022-09-09T00:31:38;96367.34;;;20.36;55.41
48778;BME280;34578;0.000;0.000;2022-09-09T00:36:40;96363.94;;;20.37;55.60
48778;BME280;34578;0.000;0.000;2022-09-09T00:41:55;96371.56;;;20.38;55.24
48778;BME280;34578;0.000;0.000;2022-09-09T00:52:36;96379.94;;;20.43;55.64
48778;BME280;34578;0.000;0.000;2022-09-09T00:57:39;96383.41;;;20.39;55.61
48778;BME280;34578;0.000;0.000;2022-09-09T01:07:51;96357.22;;;20.33;55.65
48778;BME280;34578;0.000;0.000;2022-09-09T01:12:52;96360.59;;;20.32;55.27
48778;BME280;34578;0.000;0.000;2022-09-09T01:18:02;96359.78;;;20.33;55.53
48778;BME280;34578;0.000;0.000;2022-09-09T01:28:51;96356.38;;;20.32;55.78
48778;BME280;34578;0.000;0.000;2022-09-09T01:34:09;96350.34;;;20.38;55.77
48778;BME280;34578;0.000;0.000;2022-09-09T01:39:11;96344.41;;;20.38;55.92
48778;BME280;34578;0.000;0.000;2022-09-09T01:44:13;96357.16;;;20.36;55.72
48778;BME280;34578;0.000;0.000;2022-09-09T01:49:18;96363.13;;;20.33;55.50
48778;BME280;34578;0.000;0.000;2022-09-09T01:54:20;96366.53;;;20.31;55.65
48778;BME280;34578;0.000;0.000;2022-09-09T02:09:30;96385.19;;;20.31;56.40
48778;BME280;34578;0.000;0.000;2022-09-09T02:14:35;96386.06;;;20.30;56.61
48778;BME280;34578;0.000;0.000;2022-09-09T02:19:45;96385.94;;;20.38;56.32
48778;BME280;34578;0.000;0.000;2022-09-09T02:25:04;96376.59;;;20.42;56.59
48778;BME280;34578;0.000;0.000;2022-09-09T02:30:08;96384.22;;;20.39;57.17
48778;BME280;34578;0.000;0.000;2022-09-09T02:35:19;96363.19;;;20.30;57.50
48778;BME280;34578;0.000;0.000;2022-09-09T02:40:20;96372.44;;;20.36;57.62
48778;BME280;34578;0.000;0.000;2022-09-09T02:45:39;96381.78;;;20.32;57.70
48778;BME280;34578;0.000;0.000;2022-09-09T02:51:22;96375.03;;;20.33;57.95
48778;BME280;34578;0.000;0.000;2022-09-09T02:56:25;96363.25;;;20.24;58.20
48778;BME280;34578;0.000;0.000;2022-09-09T03:01:29;96380.13;;;20.31;58.00
48778;BME280;34578;0.000;0.000;2022-09-09T03:06:30;96381.75;;;20.35;58.07
48778;BME280;34578;0.000;0.000;2022-09-09T03:11:39;96376.63;;;20.38;58.19
48778;BME280;34578;0.000;0.000;2022-09-09T03:16:41;96364.00;;;20.31;58.31
48778;BME280;34578;0.000;0.000;2022-09-09T03:21:47;96363.25;;;20.26;58.37
48778;BME280;34578;0.000;0.000;2022-09-09T03:26:48;96369.09;;;20.31;58.34
48778;BME280;34578;0.000;0.000;2022-09-09T03:31:51;96375.03;;;20.30;58.59
48778;BME280;34578;0.000;0.000;2022-09-09T03:36:52;96369.09;;;20.31;58.49
48778;BME280;34578;0.000;0.000;2022-09-09T03:41:53;96374.19;;;20.31;58.43
48778;BME280;34578;0.000;0.000;2022-09-09T03:46:54;96362.25;;;20.36;58.83
48778;BME280;34578;0.000;0.000;2022-09-09T03:51:56;96362.22;;;20.38;58.35
48778;BME280;34578;0.000;0.000;2022-09-09T03:56:57;96366.44;;;20.39;58.44
48778;BME280;34578;0.000;0.000;2022-09-09T04:01:59;96358.00;;;20.36;58.46
48778;BME280;34578;0.000;0.000;2022-09-09T04:06:59;96356.31;;;20.35;58.52
48778;BME280;34578;0.000;0.000;2022-09-09T04:12:00;96358.00;;;20.36;58.67
48778;BME280;34578;0.000;0.000;2022-09-09T04:17:00;96363.06;;;20.38;58.70
48778;BME280;34578;0.000;0.000;2022-09-09T04:22:00;96371.56;;;20.35;58.82
48778;BME280;34578;0.000;0.000;2022-09-09T04:27:01;96374.16;;;20.34;58.81
48778;BME280;34578;0.000;0.000;2022-09-09T04:32:02;96374.16;;;20.34;58.85
48778;BME280;34578;0.000;0.000;2022-09-09T04:37:03;96370.69;;;20.39;58.83
48778;BME280;34578;0.000;0.000;2022-09-09T04:42:03;96376.59;;;20.39;58.79
48778;BME280;34578;0.000;0.000;2022-09-09T04:47:04;96378.25;;;20.45;58.52
48778;BME280;34578;0.000;0.000;2022-09-09T04:52:06;96379.25;;;20.34;59.02
48778;BME280;34578;0.000;0.000;2022-09-09T04:57:10;96370.75;;;20.33;58.93
48778;BME280;34578;0.000;0.000;2022-09-09T05:02:11;96358.91;;;20.34;59.12
48778;BME280;34578;0.000;0.000;2022-09-09T05:07:11;96359.72;;;20.34;58.71
48778;BME280;34578;0.000;0.000;2022-09-09T05:12:14;96368.22;;;20.33;58.74
48778;BME280;34578;0.000;0.000;2022-09-09T05:17:21;96369.06;;;20.34;59.17
48778;BME280;34578;0.000;0.000;2022-09-09T05:22:22;96379.03;;;20.48;58.92
48778;BME280;34578;0.000;0.000;2022-09-09T05:27:24;96379.81;;;20.53;58.36
48778;BME280;34578;0.000;0.000;2022-09-09T05:32:25;96371.84;;;20.77;58.34
48778;BME280;34578;0.000;0.000;2022-09-09T05:37:26;96370.81;;;20.92;57.93
48778;BME280;34578;0.000;0.000;2022-09-09T05:42:30;96367.50;;;20.87;57.99
48778;BME280;34578;0.000;0.000;2022-09-09T05:47:33;96370.91;;;20.84;57.62
48778;BME280;34578;0.000;0.000;2022-09-09T05:52:33;96378.50;;;20.87;57.81
48778;BME280;34578;0.000;0.000;2022-09-09T05:57:34;96385.31;;;20.87;58.03
48778;BME280;34578;0.000;0.000;2022-09-09T06:02:34;96386.94;;;20.89;58.22
48778;BME280;34578;0.000;0.000;2022-09-09T06:07:37;96386.97;;;20.85;58.29
48778;BME280;34578;0.000;0.000;2022-09-09T06:12:38;96397.13;;;20.91;58.54
48778;BME280;34578;0.000;0.000;2022-09-09T06:17:39;96398.56;;;21.07;57.97
48778;BME280;34578;0.000;0.000;2022-09-09T06:22:40;96396.84;;;21.07;57.79
48778;BME280;34578;0.000;0.000;2022-09-09T06:27:41;96395.31;;;20.99;57.57
48778;BME280;34578;0.000;0.000;2022-09-09T06:32:43;96395.38;;;20.94;57.52
48778;BME280;34578;0.000;0.000;2022-09-09T06:37:47;96393.69;;;20.93;57.83
48778;BME280;34578;0.000;0.000;2022-09-09T06:42:49;96392.81;;;20.94;57.54
48778;BME280;34578;0.000;0.000;2022-09-09T06:48:08;96396.25;;;20.93;57.54
48778;BME280;34578;0.000;0.000;2022-09-09T06:53:09;96403.88;;;20.93;57.69
48778;BME280;34578;0.000;0.000;2022-09-09T06:58:09;96395.44;;;20.91;57.88
48778;BME280;34578;0.000;0.000;2022-09-09T07:03:10;96416.38;;;21.07;57.54
48778;BME280;34578;0.000;0.000;2022-09-09T07:08:11;96427.28;;;21.16;57.19
48778;BME280;34578;0.000;0.000;2022-09-09T07:13:11;96423.09;;;21.11;57.17
48778;BME280;34578;0.000;0.000;2022-09-09T07:18:12;96423.25;;;21.02;57.70
48778;BME280;34578;0.000;0.000;2022-09-09T07:23:12;96422.44;;;20.98;57.58
48778;BME280;34578;0.000;0.000;2022-09-09T07:28:13;96419.94;;;20.97;57.75
48778;BME280;34578;0.000;0.000;2022-09-09T07:33:14;96431.81;;;20.98;57.99
48778;BME280;34578;0.000;0.000;2022-09-09T07:38:15;96434.34;;;20.96;57.90
48778;BME280;34578;0.000;0.000;2022-09-09T07:43:16;96438.63;;;20.96;57.76
48778;BME280;34578;0.000;0.000;2022-09-09T07:48:19;96447.00;;;21.01;58.02
48778;BME280;34578;0.000;0.000;2022-09-09T07:53:20;96437.47;;;21.16;57.00
48778;BME280;34578;0.000;0.000;2022-09-09T07:58:20;96445.88;;;21.21;57.17
48778;BME280;34578;0.000;0.000;2022-09-09T08:03:21;96452.81;;;21.10;57.17
48778;BME280;34578;0.000;0.000;2022-09-09T08:08:22;96463.97;;;21.03;57.54
48778;BME280;34578;0.000;0.000;2022-09-09T08:13:23;96461.47;;;20.97;57.68
48778;BME280;34578;0.000;0.000;2022-09-09T08:18:23;96469.09;;;21.00;57.60
48778;BME280;34578;0.000;0.000;2022-09-09T08:23:24;96475.03;;;20.99;57.87
48778;BME280;34578;0.000;0.000;2022-09-09T08:28:26;96481.84;;;20.99;57.86
48778;BME280;34578;0.000;0.000;2022-09-09T08:33:26;96470.81;;;20.98;57.72
48778;BME280;34578;0.000;0.000;2022-09-09T08:38:27;96467.25;;;21.10;57.52
48778;BME280;34578;0.000;0.000;2022-09-09T08:43:29;96462.00;;;21.22;56.92
48778;BME280;34578;0.000;0.000;2022-09-09T08:49:27;96456.97;;;21.17;57.26
48778;BME280;34578;0.000;0.000;2022-09-09T08:54:34;96458.81;;;21.06;57.74
48778;BME280;34578;0.000;0.000;2022-09-09T08:59:37;96463.09;;;21.03;57.75
48778;BME280;34578;0.000;0.000;2022-09-09T09:04:58;96470.78;;;21.01;57.81
48778;BME280;34578;0.000;0.000;2022-09-09T09:15:19;96450.38;;;21.04;57.18
48778;BME280;34578;0.000;0.000;2022-09-09T09:20:41;96452.97;;;20.98;57.77
48778;BME280;34578;0.000;0.000;2022-09-09T09:25:48;96460.47;;;21.10;57.70
48778;BME280;34578;0.000;0.000;2022-09-09T09:35:56;96461.09;;;21.24;57.50
48778;BME280;34578;0.000;0.000;2022-09-09T09:40:59;96454.44;;;21.14;57.48
48778;BME280;34578;0.000;0.000;2022-09-09T09:46:03;96456.31;;;21.03;58.24
48778;BME280;34578;0.000;0.000;2022-09-09T09:51:09;96458.00;;;21.06;57.93
48778;BME280;34578;0.000;0.000;2022-09-09T09:56:13;96451.16;;;21.06;58.13
48778;BME280;34578;0.000;0.000;2022-09-09T10:06:35;96442.72;;;21.04;58.27
48778;BME280;34578;0.000;0.000;2022-09-09T10:11:49;96435.09;;;21.04;58.24
48778;BME280;34578;0.000;0.000;2022-09-09T10:22:27;96438.91;;;21.32;57.61
48778;BME280;34578;0.000;0.000;2022-09-09T10:33:04;96418.88;;;21.11;57.87
48778;BME280;34578;0.000;0.000;2022-09-09T10:38:14;96420.59;;;21.09;58.14
48778;BME280;34578;0.000;0.000;2022-09-09T10:48:31;96435.06;;;21.06;58.22
48778;BME280;34578;0.000;0.000;2022-09-09T10:53:49;96436.81;;;21.04;57.94
48778;BME280;34578;0.000;0.000;2022-09-09T10:59:02;96446.94;;;21.05;58.04
48778;BME280;34578;0.000;0.000;2022-09-09T11:04:17;96437.28;;;21.27;56.98
48778;BME280;34578;0.000;0.000;2022-09-09T11:09:28;96443.97;;;21.34;57.07
48778;BME280;34578;0.000;0.000;2022-09-09T11:14:36;96439.19;;;21.14;57.42
48778;BME280;34578;0.000;0.000;2022-09-09T11:19:41;96440.91;;;21.12;57.83
48778;BME280;34578;0.000;0.000;2022-09-09T11:35:21;96446.94;;;21.08;58.13
48778;BME280;34578;0.000;0.000;2022-09-09T11:40:28;96446.09;;;21.06;58.10
48778;BME280;34578;0.000;0.000;2022-09-09T11:45:29;96458.81;;;21.06;58.04
48778;BME280;34578;0.000;0.000;2022-09-09T11:50:32;96461.94;;;21.25;57.52
48778;BME280;34578;0.000;0.000;2022-09-09T11:55:34;96463.47;;;21.36;57.20
48778;BME280;34578;0.000;0.000;2022-09-09T12:00:40;96467.78;;;21.31;57.44
48778;BME280;34578;0.000;0.000;2022-09-09T12:05:45;96456.94;;;21.19;57.77
48778;BME280;34578;0.000;0.000;2022-09-09T12:10:54;96458.72;;;21.14;57.82
48778;BME280;34578;0.000;0.000;2022-09-09T12:15:57;96458.75;;;21.11;58.10
48778;BME280;34578;0.000;0.000;2022-09-09T12:26:43;96440.06;;;21.12;57.75
48778;BME280;34578;0.000;0.000;2022-09-09T12:32:09;96435.03;;;21.07;58.00
48778;BME280;34578;0.000;0.000;2022-09-09T12:37:16;96444.97;;;21.24;57.90
48778;BME280;34578;0.000;0.000;2022-09-09T12:42:22;96441.34;;;21.38;57.62
48778;BME280;34578;0.000;0.000;2022-09-09T12:47:46;96424.53;;;21.28;57.51
48778;BME280;34578;0.000;0.000;2022-09-09T12:52:51;96431.44;;;21.22;57.85
48778;BME280;34578;0.000;0.000;2022-09-09T12:57:53;96427.28;;;21.16;58.12
48778;BME280;34578;0.000;0.000;2022-09-09T13:02:56;96424.78;;;21.12;58.10
48778;BME280;34578;0.000;0.000;2022-09-09T13:08:08;96425.63;;;21.12;58.22
48778;BME280;34578;0.000;0.000;2022-09-09T13:13:20;96435.81;;;21.12;58.22
48778;BME280;34578;0.000;0.000;2022-09-09T13:18:24;96435.88;;;21.09;58.21
48778;BME280;34578;0.000;0.000;2022-09-09T13:23:36;96420.47;;;21.18;58.83
48778;BME280;34578;0.000;0.000;2022-09-09T13:28:37;96433.72;;;21.37;58.08
48778;BME280;34578;0.000;0.000;2022-09-09T13:33:38;96454.91;;;21.40;57.61
48778;BME280;34578;0.000;0.000;2022-09-09T13:43:52;96464.63;;;21.14;57.93
48778;BME280;34578;0.000;0.000;2022-09-09T13:48:56;96459.53;;;21.14;58.27
48778;BME280;34578;0.000;0.000;2022-09-09T13:53:57;96457.03;;;21.13;58.15
48778;BME280;34578;0.000;0.000;2022-09-09T13:58:57;96446.06;;;21.08;58.24
48778;BME280;34578;0.000;0.000;2022-09-09T14:03:58;96449.44;;;21.10;58.18
48778;BME280;34578;0.000;0.000;2022-09-09T14:08:59;96434.19;;;21.08;58.28
48778;BME280;34578;0.000;0.000;2022-09-09T14:13:59;96444.03;;;21.29;57.85
48778;BME280;34578;0.000;0.000;2022-09-09T14:19:01;96439.59;;;21.42;57.65
48778;BME280;34578;0.000;0.000;2022-09-09T14:24:01;96430.41;;;21.33;57.50
48778;BME280;34578;0.000;0.000;2022-09-09T14:29:02;96427.16;;;21.25;57.90
48778;BME280;34578;0.000;0.000;2022-09-09T14:34:02;96429.84;;;21.16;58.26
48778;BME280;34578;0.000;0.000;2022-09-09T14:39:03;96438.31;;;21.15;58.02
48778;BME280;34578;0.000;0.000;2022-09-09T14:44:04;96436.69;;;21.13;58.33
48778;BME280;34578;0.000;0.000;2022-09-09T14:49:04;96431.59;;;21.13;58.20
48778;BME280;34578;0.000;0.000;2022-09-09T14:54:05;96423.16;;;21.09;58.39
48778;BME280;34578;0.000;0.000;2022-09-09T14:59:05;96415.31;;;21.21;58.36
48778;BME280;34578;0.000;0.000;2022-09-09T15:04:05;96412.47;;;21.39;57.86
48778;BME280;34578;0.000;0.000;2022-09-09T15:09:06;96422.63;;;21.41;57.60
48778;BME280;34578;0.000;0.000;2022-09-09T15:14:08;96418.56;;;21.29;57.80
48778;BME280;34578;0.000;0.000;2022-09-09T15:19:09;96414.50;;;21.18;58.22
48778;BME280;34578;0.000;0.000;2022-09-09T15:24:09;96417.94;;;21.17;58.24
48778;BME280;34578;0.000;0.000;2022-09-09T15:29:10;96422.22;;;21.13;58.39
48778;BME280;34578;0.000;0.000;2022-09-09T15:34:10;96431.59;;;21.13;58.37
48778;BME280;34578;0.000;0.000;2022-09-09T15:39:13;96421.41;;;21.11;58.74
48778;BME280;34578;0.000;0.000;2022-09-09T15:44:15;96428.25;;;21.09;58.48
48778;BME280;34578;0.000;0.000;2022-09-09T15:49:18;96422.78;;;21.33;57.95
48778;BME280;34578;0.000;0.000;2022-09-09T15:54:20;96423.44;;;21.44;57.79
48778;BME280;34578;0.000;0.000;2022-09-09T15:59:24;96424.44;;;21.34;57.69
48778;BME280;34578;0.000;0.000;2022-09-09T16:04:25;96435.66;;;21.23;57.92
48778;BME280;34578;0.000;0.000;2022-09-09T16:09:26;96430.66;;;21.15;58.32
48778;BME280;34578;0.000;0.000;2022-09-09T16:14:27;96418.84;;;21.13;58.36
48778;BME280;34578;0.000;0.000;2022-09-09T16:19:28;96430.72;;;21.12;58.69
48778;BME280;34578;0.000;0.000;2022-09-09T16:24:28;96429.06;;;21.11;58.50
48778;BME280;34578;0.000;0.000;2022-09-09T16:29:29;96441.78;;;21.10;58.37
48778;BME280;34578;0.000;0.000;2022-09-09T16:34:29;96479.78;;;21.23;58.26
48778;BME280;34578;0.000;0.000;2022-09-09T16:39:30;96494.81;;;21.40;57.42
48778;BME280;34578;0.000;0.000;2022-09-09T16:44:30;96494.88;;;21.35;57.62
48778;BME280;34578;0.000;0.000;2022-09-09T16:49:30;96510.25;;;21.28;57.84
48778;BME280;34578;0.000;0.000;2022-09-09T16:54:31;96517.22;;;21.18;58.19
48778;BME280;34578;0.000;0.000;2022-09-09T16:59:31;96524.88;;;21.15;58.39
48778;BME280;34578;0.000;0.000;2022-09-09T17:04:32;96507.09;;;21.12;58.43
48778;BME280;34578;0.000;0.000;2022-09-09T17:09:33;96498.66;;;21.10;58.48
48778;BME280;34578;0.000;0.000;2022-09-09T17:14:33;96502.94;;;21.08;58.64
48778;BME280;34578;0.000;0.000;2022-09-09T17:19:34;96505.47;;;21.08;58.64
48778;BME280;34578;0.000;0.000;2022-09-09T17:24:35;96511.94;;;21.30;57.98
48778;BME280;34578;0.000;0.000;2022-09-09T17:29:38;96516.88;;;21.42;57.52
48778;BME280;34578;0.000;0.000;2022-09-09T17:34:39;96524.63;;;21.33;57.81
48778;BME280;34578;0.000;0.000;2022-09-09T17:39:39;96517.16;;;21.21;58.12
48778;BME280;34578;0.000;0.000;2022-09-09T17:44:40;96524.91;;;21.14;58.48
48778;BME280;34578;0.000;0.000;2022-09-09T17:49:41;96530.88;;;21.13;58.61
48778;BME280;34578;0.000;0.000;2022-09-09T17:54:42;96525.78;;;21.11;58.65
48778;BME280;34578;0.000;0.000;2022-09-09T17:59:43;96524.09;;;21.10;58.60
48778;BME280;34578;0.000;0.000;2022-09-09T18:04:43;96534.28;;;21.10;58.61
48778;BME280;34578;0.000;0.000;2022-09-09T18:09:43;96518.84;;;21.22;58.31
48778;BME280;34578;0.000;0.000;2022-09-09T18:14:44;96511.84;;;21.36;57.52
48778;BME280;34578;0.000;0.000;2022-09-09T18:19:44;96516.88;;;21.39;57.68
48778;BME280;34578;0.000;0.000;2022-09-09T18:24:44;96528.94;;;21.28;58.08
48778;BME280;34578;0.000;0.000;2022-09-09T18:29:47;96537.53;;;21.20;58.51
48778;BME280;34578;0.000;0.000;2022-09-09T18:34:47;96539.31;;;21.16;58.58
48778;BME280;34578;0.000;0.000;2022-09-09T18:39:48;96547.84;;;21.12;58.47
48778;BME280;34578;0.000;0.000;2022-09-09T18:44:49;96550.44;;;21.08;58.76
48778;BME280;34578;0.000;0.000;2022-09-09T18:49:49;96547.09;;;21.03;58.79
48778;BME280;34578;0.000;0.000;2022-09-09T18:54:50;96555.53;;;21.08;58.57
48778;BME280;34578;0.000;0.000;2022-09-09T18:59:52;96554.41;;;21.30;58.58
48778;BME280;34578;0.000;0.000;2022-09-09T19:04:53;96564.41;;;21.40;58.36
48778;BME280;34578;0.000;0.000;2022-09-09T19:09:54;96573.03;;;21.33;58.24
48778;BME280;34578;0.000;0.000;2022-09-09T19:14:54;96579.13;;;21.22;58.57
48778;BME280;34578;0.000;0.000;2022-09-09T19:19:54;96596.13;;;21.18;58.57
48778;BME280;34578;0.000;0.000;2022-09-09T19:24:55;96597.00;;;21.17;58.53
48778;BME280;34578;0.000;0.000;2022-09-09T19:29:55;96593.59;;;21.15;58.77
48778;BME280;34578;0.000;0.000;2022-09-09T19:34:56;96598.75;;;21.12;58.87
48778;BME280;34578;0.000;0.000;2022-09-09T19:39:57;96602.97;;;21.13;58.73
48778;BME280;34578;0.000;0.000;2022-09-09T19:44:57;96581.72;;;21.17;58.32
48778;BME280;34578;0.000;0.000;2022-09-09T19:49:57;96583.97;;;21.40;58.04
48778;BME280;34578;0.000;0.000;2022-09-09T19:54:58;96585.72;;;21.35;58.16
48778;BME280;34578;0.000;0.000;2022-09-09T19:59:58;96574.84;;;21.25;58.29
48778;BME280;34578;0.000;0.000;2022-09-09T20:04:59;96585.91;;;21.20;58.28
48778;BME280;34578;0.000;0.000;2022-09-09T20:10:00;96584.28;;;21.14;58.63
48778;BME280;34578;0.000;0.000;2022-09-09T20:15:00;96577.22;;;21.36;58.41
48778;BME280;34578;0.000;0.000;2022-09-09T20:20:01;96566.19;;;21.35;57.88
48778;BME280;34578;0.000;0.000;2022-09-09T20:25:03;96573.84;;;21.34;58.03
48778;BME280;34578;0.000;0.000;2022-09-09T20:30:04;96583.34;;;21.21;58.37
48778;BME280;34578;0.000;0.000;2022-09-09T20:35:04;96581.72;;;21.17;58.49
48778;BME280;34578;0.000;0.000;2022-09-09T20:40:05;96581.75;;;21.14;58.56
48778;BME280;34578;0.000;0.000;2022-09-09T20:45:06;96595.31;;;21.16;58.55
48778;BME280;34578;0.000;0.000;2022-09-09T20:50:08;96584.84;;;21.37;57.49
48778;BME280;34578;0.000;0.000;2022-09-09T20:55:09;96581.38;;;21.41;57.42
48778;BME280;34578;0.000;0.000;2022-09-09T21:00:10;96576.41;;;21.32;57.79
48778;BME280;34578;0.000;0.000;2022-09-09T21:05:10;96573.16;;;21.21;58.30
48778;BME280;34578;0.000;0.000;2022-09-09T21:10:11;96589.31;;;21.20;58.38
48778;BME280;34578;0.000;0.000;2022-09-09T21:15:11;96592.78;;;21.16;58.58
48778;BME280;34578;0.000;0.000;2022-09-09T21:20:11;96590.06;;;21.28;57.81
48778;BME280;34578;0.000;0.000;2022-09-09T21:25:13;96594.97;;;21.40;57.07
48778;BME280;34578;0.000;0.000;2022-09-09T21:30:13;96594.16;;;21.38;57.48
48778;BME280;34578;0.000;0.000;2022-09-09T21:35:14;96598.56;;;21.27;57.92
48778;BME280;34578;0.000;0.000;2022-09-09T21:40:15;96600.38;;;21.19;58.38
48778;BME280;34578;0.000;0.000;2022-09-09T21:45:16;96600.41;;;21.16;58.03
48778;BME280;34578;0.000;0.000;2022-09-09T21:50:18;96606.28;;;21.21;57.97
48778;BME280;34578;0.000;0.000;2022-09-09T21:55:21;96598.69;;;21.15;58.50
48778;BME280;34578;0.000;0.000;2022-09-09T22:00:21;96598.44;;;21.38;57.43
48778;BME280;34578;0.000;0.000;2022-09-09T22:05:23;96609.38;;;21.41;57.81
48778;BME280;34578;0.000;0.000;2022-09-09T22:10:24;96589.19;;;21.29;57.99
48778;BME280;34578;0.000;0.000;2022-09-09T22:15:26;96592.69;;;21.22;58.41
48778;BME280;34578;0.000;0.000;2022-09-09T22:20:33;96607.19;;;21.17;58.62
48778;BME280;34578;0.000;0.000;2022-09-09T22:25:35;96592.78;;;21.15;58.64
48778;BME280;34578;0.000;0.000;2022-09-09T22:30:36;96594.47;;;21.14;58.70
48778;BME280;34578;0.000;0.000;2022-09-09T22:35:39;96593.53;;;21.21;58.23
48778;BME280;34578;0.000;0.000;2022-09-09T22:40:41;96599.25;;;21.38;57.10
48778;BME280;34578;0.000;0.000;2022-09-09T22:45:42;96587.38;;;21.37;57.33
48778;BME280;34578;0.000;0.000;2022-09-09T22:50:43;96584.06;;;21.32;57.70
48778;BME280;34578;0.000;0.000;2022-09-09T22:55:55;96592.69;;;21.22;58.22
48778;BME280;34578;0.000;0.000;2022-09-09T23:00:59;96585.13;;;21.16;58.58
48778;BME280;34578;0.000;0.000;2022-09-09T23:06:00;96578.38;;;21.14;58.56
48778;BME280;34578;0.000;0.000;2022-09-09T23:11:09;96581.78;;;21.13;58.49
48778;BME280;34578;0.000;0.000;2022-09-09T23:16:15;96579.94;;;21.22;57.99
48778;BME280;34578;0.000;0.000;2022-09-09T23:21:15;96583.97;;;21.38;56.61
48778;BME280;34578;0.000;0.000;2022-09-09T23:26:16;96585.66;;;21.41;57.06
48778;BME280;34578;0.000;0.000;2022-09-09T23:31:20;96583.22;;;21.30;57.74
48778;BME280;34578;0.000;0.000;2022-09-09T23:36:23;96586.78;;;21.20;58.10
48778;BME280;34578;0.000;0.000;2022-09-09T23:41:24;96590.22;;;21.16;58.31
48778;BME280;34578;0.000;0.000;2022-09-09T23:46:26;96582.59;;;21.15;58.48
48778;BME280;34578;0.000;0.000;2022-09-09T23:51:28;96584.28;;;21.14;58.59
48778;BME280;34578;0.000;0.000;2022-09-09T23:56:35;96577.50;;;21.15;58.36
